Time;durP1;ratioP1;P1;durP2;ratioP2;P2;SDS_P1;SDS_P2;PMS_P1;PMS_P2;Temp;Humidity;BMP_temperature;BMP_pressure;BME280_temperature;BME280_humidity;BME280_pressure;Samples;Min_cycle;Max_cycle;Signal;HPM_P1;HPM_P2
2021/10/05 00:01:44;;;;;;;16.77;14.98;;;;;;;16.49;69.49;100340.75;4921091;28;96937;-88
2021/10/05 00:04:10;;;;;;;17.00;14.85;;;;;;;16.36;70.28;100338.88;4940704;28;97488;-88
2021/10/05 00:06:36;;;;;;;20.90;16.92;;;;;;;16.38;70.39;100331.72;4941460;28;101078;-87
2021/10/05 00:09:02;;;;;;;21.50;16.80;;;;;;;16.39;70.39;100336.06;4958834;28;96667;-89
2021/10/05 00:11:28;;;;;;;17.77;15.70;;;;;;;16.43;70.15;100327.81;4919154;28;96928;-88
2021/10/05 00:13:54;;;;;;;21.63;16.50;;;;;;;16.44;70.00;100332.19;4920399;28;101753;-88
2021/10/05 00:16:20;;;;;;;19.95;16.60;;;;;;;16.44;69.53;100318.94;4925687;28;97939;-88
2021/10/05 00:18:47;;;;;;;20.67;17.17;;;;;;;16.42;69.75;100327.94;4943518;28;96766;-87
2021/10/05 00:21:13;;;;;;;21.55;19.08;;;;;;;16.35;69.93;100323.91;4929575;28;97035;-88
2021/10/05 00:23:38;;;;;;;26.00;19.10;;;;;;;16.27;70.22;100322.56;4933583;28;98548;-89
2021/10/05 00:26:04;;;;;;;22.75;18.20;;;;;;;16.25;70.20;100316.50;4928867;28;101414;-89
2021/10/05 00:28:30;;;;;;;26.70;21.45;;;;;;;16.18;70.49;100323.09;4937709;28;96821;-89
2021/10/05 00:30:56;;;;;;;24.70;22.02;;;;;;;16.19;70.49;100316.84;4922220;28;96930;-89
2021/10/05 00:33:21;;;;;;;28.10;25.17;;;;;;;16.22;70.35;100313.19;4935950;28;101774;-88
2021/10/05 00:35:47;;;;;;;30.70;27.33;;;;;;;16.15;70.68;100302.09;4935642;28;101184;-88
2021/10/05 00:38:13;;;;;;;32.10;28.40;;;;;;;16.12;70.93;100299.63;4919124;28;97376;-88
2021/10/05 00:40:39;;;;;;;30.23;26.40;;;;;;;16.14;70.90;100296.88;4932647;28;97177;-88
2021/10/05 00:43:05;;;;;;;30.80;27.67;;;;;;;16.09;70.84;100288.38;4911410;28;100534;-89
2021/10/05 00:45:31;;;;;;;29.75;25.83;;;;;;;16.04;70.86;100297.41;4937175;28;101221;-89
2021/10/05 00:47:56;;;;;;;29.05;24.98;;;;;;;16.09;70.15;100294.50;4922686;28;96751;-90
2021/10/05 00:50:22;;;;;;;26.48;23.58;;;;;;;16.07;69.98;100285.78;4924003;28;96905;-88
2021/10/05 00:52:49;;;;;;;26.83;23.95;;;;;;;16.10;70.54;100280.31;4915917;28;101335;-88
2021/10/05 00:55:16;;;;;;;26.75;23.85;;;;;;;16.07;70.42;100283.16;4933998;28;99587;-88
2021/10/05 00:57:41;;;;;;;29.60;24.40;;;;;;;16.12;69.72;100278.44;4922868;28;96615;-88
2021/10/05 01:00:08;;;;;;;26.08;23.27;;;;;;;16.03;69.88;100271.03;4922935;28;96681;-88
2021/10/05 01:02:34;;;;;;;29.42;24.52;;;;;;;15.95;69.90;100263.53;4922627;28;102032;-87
2021/10/05 01:05:00;;;;;;;29.17;25.13;;;;;;;15.95;70.92;100267.97;4936947;28;100943;-89
2021/10/05 01:07:25;;;;;;;30.90;23.45;;;;;;;15.97;71.39;100263.41;4923156;28;96780;-88
2021/10/05 01:09:52;;;;;;;31.30;24.13;;;;;;;15.96;71.25;100246.69;4900643;28;96654;-88
2021/10/05 01:12:18;;;;;;;34.45;25.02;;;;;;;15.98;71.65;100255.41;4919079;28;101618;-88
2021/10/05 01:14:43;;;;;;;31.35;23.65;;;;;;;15.94;71.09;100231.81;4929195;28;98537;-88
2021/10/05 01:17:09;;;;;;;25.67;22.98;;;;;;;15.89;70.29;100231.25;4899973;28;96933;-88
2021/10/05 01:19:35;;;;;;;26.08;21.83;;;;;;;15.89;70.40;100247.16;4900737;28;96991;-87
2021/10/05 01:22:01;;;;;;;23.52;20.98;;;;;;;15.85;70.51;100249.09;4899873;28;101249;-88
2021/10/05 01:24:26;;;;;;;26.13;22.27;;;;;;;15.81;70.80;100247.56;4884475;28;101473;-88
2021/10/05 01:26:53;;;;;;;26.38;21.30;;;;;;;15.78;70.56;100235.38;4900538;28;96582;-90
2021/10/05 01:29:22;;;;;;;33.35;21.50;;;;;;;15.77;71.38;100224.88;4915972;28;96768;-88
2021/10/05 01:31:50;;;;;;;27.98;21.73;;;;;;;15.73;71.25;100224.19;4884679;28;101415;-87
2021/10/05 01:34:19;;;;;;;29.02;23.05;;;;;;;15.76;71.66;100218.72;4912269;28;100426;-88
2021/10/05 01:36:45;;;;;;;28.75;22.23;;;;;;;15.75;71.28;100219.66;4877475;28;96794;-88
2021/10/05 01:39:39;;;;;;;31.92;23.27;;;;;;;15.72;71.95;100213.69;4905162;28;96815;-88
2021/10/05 01:42:11;;;;;;;29.30;23.10;;;;;;;15.76;71.44;100207.28;4914507;28;98539;-86
2021/10/05 01:44:37;;;;;;;;;;;;;;;15.70;70.96;100213.78;4898792;28;99898;-88
2021/10/05 01:47:04;;;;;;;30.02;23.88;;;;;;;15.68;71.90;100217.44;4902391;28;96796;-89
2021/10/05 01:49:29;;;;;;;33.05;23.90;;;;;;;15.62;72.00;100214.19;4903727;28;96938;-89
2021/10/05 01:51:55;;;;;;;31.10;23.58;;;;;;;15.62;72.27;100206.25;4915031;28;97452;-87
2021/10/05 01:54:21;;;;;;;26.40;22.10;;;;;;;15.66;71.39;100209.56;4900048;28;102196;-87
2021/10/05 01:56:47;;;;;;;26.05;20.75;;;;;;;15.62;70.96;100210.69;4918929;28;96702;-88
2021/10/05 01:59:15;;;;;;;31.42;22.55;;;;;;;15.63;71.19;100207.09;4907626;28;97621;-88
2021/10/05 02:01:40;;;;;;;30.33;23.63;;;;;;;15.60;71.09;100196.69;4915785;28;98567;-88
2021/10/05 02:04:10;;;;;;;27.25;22.13;;;;;;;15.54;71.00;100189.97;4890164;28;100040;-88
2021/10/05 02:06:36;;;;;;;26.08;23.25;;;;;;;15.55;71.74;100183.72;4926184;28;96752;-88
2021/10/05 02:09:07;;;;;;;27.58;24.67;;;;;;;15.52;72.53;100185.69;4938631;28;96991;-89
2021/10/05 02:11:33;;;;;;;28.63;24.23;;;;;;;15.52;72.45;100178.59;4918272;28;100430;-88
2021/10/05 02:13:59;;;;;;;27.63;24.35;;;;;;;15.54;72.38;100162.66;4918633;28;97992;-93
2021/10/05 02:16:24;;;;;;;27.55;23.77;;;;;;;15.55;72.04;100161.69;4915425;28;96852;-87
2021/10/05 02:18:50;;;;;;;34.40;26.23;;;;;;;15.56;72.23;100169.56;4922431;28;96998;-88
2021/10/05 02:21:16;;;;;;;28.55;24.40;;;;;;;15.50;73.18;100179.63;4918881;28;101451;-88
2021/10/05 02:26:27;;;;;;;32.78;26.20;;;;;;;15.50;73.25;100159.31;4944005;28;96669;-88
2021/10/05 02:28:53;;;;;;;33.17;26.58;;;;;;;15.47;73.29;100177.16;4908266;28;96831;-88
2021/10/05 02:31:18;;;;;;;32.00;26.73;;;;;;;15.44;73.30;100170.25;4906160;28;101860;-88
2021/10/05 02:33:44;;;;;;;33.75;26.02;;;;;;;15.37;73.74;100167.09;4905923;28;100376;-88
2021/10/05 02:36:10;;;;;;;33.50;26.73;;;;;;;15.45;73.49;100160.53;4925750;28;97902;-88
2021/10/05 02:38:35;;;;;;;36.38;28.77;;;;;;;15.46;73.08;100160.44;4954981;28;96860;-88
2021/10/05 02:41:01;;;;;;;34.35;28.23;;;;;;;15.25;74.02;100159.84;4921928;28;100129;-89
2021/10/05 02:43:26;;;;;;;36.22;28.02;;;;;;;15.23;74.03;100151.16;4920210;28;100855;-88
2021/10/05 02:45:52;;;;;;;33.80;26.73;;;;;;;15.27;73.86;100158.00;4919117;28;96594;-88
2021/10/05 02:48:17;;;;;;;33.08;27.67;;;;;;;15.24;73.79;100152.88;4935587;28;96787;-87
2021/10/05 02:50:43;;;;;;;35.25;28.10;;;;;;;15.25;73.68;100154.56;4934757;28;101311;-88
2021/10/05 02:53:08;;;;;;;35.75;28.02;;;;;;;15.17;73.81;100151.50;4930920;28;101317;-88
2021/10/05 02:55:34;;;;;;;34.97;27.25;;;;;;;15.24;73.66;100130.84;4951329;28;96820;-88
2021/10/05 02:57:59;;;;;;;33.55;28.77;;;;;;;15.15;73.77;100142.78;4951497;28;96708;-88
2021/10/05 03:00:25;;;;;;;36.40;28.60;;;;;;;15.05;73.98;100141.59;4901861;28;99945;-88
2021/10/05 03:02:51;;;;;;;36.22;29.63;;;;;;;15.04;73.87;100142.53;4902499;28;100021;-88
2021/10/05 03:05:16;;;;;;;34.55;28.08;;;;;;;15.01;74.16;100151.50;4918925;28;96621;-88
2021/10/05 03:07:42;;;;;;;36.92;28.80;;;;;;;14.93;73.99;100141.34;4939637;28;97511;-88
2021/10/05 03:10:09;;;;;;;38.70;27.77;;;;;;;14.99;73.55;100147.25;4918397;28;101313;-88
2021/10/05 03:12:34;;;;;;;31.75;26.77;;;;;;;15.02;73.41;100149.72;4918699;28;98340;-88
2021/10/05 03:15:00;;;;;;;32.65;25.40;;;;;;;14.85;73.50;100154.13;4934633;28;98614;-88
2021/10/05 03:17:25;;;;;;;32.92;24.73;;;;;;;14.77;73.62;100158.09;4915188;28;96709;-88
2021/10/05 03:19:51;;;;;;;30.02;24.75;;;;;;;14.73;73.96;100164.50;4927952;28;100820;-88
2021/10/05 03:22:17;;;;;;;33.38;23.90;;;;;;;14.64;74.15;100147.34;4921201;28;101294;-88
2021/10/05 03:24:43;;;;;;;31.15;23.30;;;;;;;14.66;74.04;100149.00;4918351;28;96669;-88
2021/10/05 03:27:10;;;;;;;33.25;25.25;;;;;;;14.74;73.79;100155.63;4931505;28;96860;-88
2021/10/05 03:29:36;;;;;;;32.47;25.88;;;;;;;14.77;73.56;100140.47;4918216;28;101736;-88
2021/10/05 03:32:02;;;;;;;39.30;25.05;;;;;;;14.84;73.47;100131.28;4929421;28;101330;-88
2021/10/05 03:34:28;;;;;;;44.40;27.88;;;;;;;14.73;73.57;100122.22;4934456;28;96670;-88
2021/10/05 03:36:53;;;;;;;36.67;27.27;;;;;;;14.54;74.61;100125.84;4934410;28;97057;-88
2021/10/05 03:39:19;;;;;;;35.22;25.60;;;;;;;14.54;74.76;100128.50;4937403;28;100182;-88
2021/10/05 03:41:45;;;;;;;34.42;25.65;;;;;;;14.58;74.63;100114.19;4923546;28;100485;-88
2021/10/05 03:44:10;;;;;;;70.22;27.58;;;;;;;14.49;74.67;100120.78;4940211;28;97233;-88
2021/10/05 03:46:36;;;;;;;59.38;25.73;;;;;;;14.41;74.82;100117.69;4931695;28;96890;-89
2021/10/05 03:49:02;;;;;;;42.00;26.23;;;;;;;14.19;75.41;100111.84;4922231;28;98581;-89
2021/10/05 03:51:28;;;;;;;63.40;24.55;;;;;;;14.26;74.76;100107.97;4924080;28;101210;-88
2021/10/05 03:53:53;;;;;;;55.80;24.27;;;;;;;14.25;75.04;100106.22;4924609;28;96640;-88
2021/10/05 03:56:19;;;;;;;32.03;24.88;;;;;;;14.17;75.44;100105.81;4936779;28;96648;-88
2021/10/05 03:58:44;;;;;;;57.40;25.58;;;;;;;14.06;75.39;100101.06;4916217;28;101382;-88
2021/10/05 04:01:10;;;;;;;45.50;26.15;;;;;;;14.09;75.57;100098.28;4939960;28;101425;-88
2021/10/05 04:03:35;;;;;;;30.45;25.70;;;;;;;13.97;75.84;100083.09;4940708;28;96699;-88
2021/10/05 04:06:04;;;;;;;34.83;25.48;;;;;;;13.99;75.87;100078.56;4925759;28;96898;-89
2021/10/05 04:08:30;;;;;;;30.13;24.52;;;;;;;14.09;75.01;100082.44;4902266;28;98511;-89
2021/10/05 04:10:57;;;;;;;35.95;25.13;;;;;;;13.90;75.36;100079.88;4891487;28;100033;-89
2021/10/05 04:13:22;;;;;;;38.55;24.20;;;;;;;13.86;75.62;100072.22;4916653;28;96723;-88
2021/10/05 04:15:48;;;;;;;27.60;23.05;;;;;;;13.88;75.79;100058.03;4931612;28;96980;-89
2021/10/05 04:18:14;;;;;;;30.58;23.80;;;;;;;13.87;75.86;100060.72;4914610;28;99902;-89
2021/10/05 04:20:39;;;;;;;32.50;23.95;;;;;;;13.82;76.07;100053.06;4923092;28;100451;-89
2021/10/05 04:23:05;;;;;;;29.38;24.35;;;;;;;13.84;75.58;100045.06;4923547;28;96612;-90
2021/10/05 04:25:30;;;;;;;35.30;24.65;;;;;;;13.88;75.73;100058.03;4921316;28;96915;-88
2021/10/05 04:27:56;;;;;;;55.72;24.95;;;;;;;13.95;75.70;100054.13;4938384;28;97659;-88
2021/10/05 04:30:21;;;;;;;53.05;24.55;;;;;;;14.03;75.76;100046.66;4920676;28;99453;-88
2021/10/05 04:32:47;;;;;;;42.47;26.15;;;;;;;13.92;76.06;100045.53;4897342;28;96787;-88
2021/10/05 04:35:12;;;;;;;43.83;25.30;;;;;;;13.94;75.59;100047.16;4920615;28;97105;-88
2021/10/05 04:37:38;;;;;;;52.25;27.17;;;;;;;13.98;75.83;100058.38;4903839;28;99015;-88
2021/10/05 04:40:05;;;;;;;46.28;29.50;;;;;;;13.96;75.45;100055.84;4903904;28;100660;-89
2021/10/05 04:42:31;;;;;;;45.90;28.73;;;;;;;13.93;75.43;100042.81;4887480;28;96739;-88
2021/10/05 04:44:57;;;;;;;44.50;28.33;;;;;;;13.89;75.72;100045.69;4931808;28;97012;-89
2021/10/05 04:47:23;;;;;;;46.45;28.05;;;;;;;13.85;76.17;100049.44;4900050;28;101110;-88
2021/10/05 04:49:48;;;;;;;41.85;28.27;;;;;;;13.83;76.50;100044.22;4897457;28;101376;-87
2021/10/05 04:52:14;;;;;;;39.13;28.65;;;;;;;13.81;76.83;100036.38;4910454;28;97110;-87
2021/10/05 04:54:40;;;;;;;43.40;29.45;;;;;;;13.85;76.37;100037.09;4917248;28;96910;-87
2021/10/05 04:57:05;;;;;;;59.70;29.45;;;;;;;13.91;76.11;100030.63;4914074;28;100930;-87
2021/10/05 04:59:32;;;;;;;38.65;29.10;;;;;;;13.85;76.22;100023.03;4917671;28;97427;-89
2021/10/05 05:01:58;;;;;;;40.67;28.70;;;;;;;13.89;75.77;100021.94;4896761;28;97634;-88
2021/10/05 05:04:25;;;;;;;46.35;29.40;;;;;;;13.91;76.35;100018.28;4912756;28;97437;-88
2021/10/05 05:06:51;;;;;;;51.05;30.02;;;;;;;13.98;75.50;100019.66;4916874;28;98214;-94
2021/10/05 05:09:18;;;;;;;50.75;30.38;;;;;;;13.85;76.07;100010.69;4902026;28;99402;-94
2021/10/05 05:11:47;;;;;;;48.30;30.05;;;;;;;13.84;75.66;100006.34;4922715;28;97284;-93
2021/10/05 05:14:14;;;;;;;63.40;33.85;;;;;;;14.05;75.56;99999.09;4938906;28;97554;-95
2021/10/05 05:16:41;;;;;;;65.72;35.60;;;;;;;13.96;75.34;99986.38;4909325;28;98794;-95
2021/10/05 05:19:07;;;;;;;64.78;34.90;;;;;;;13.86;75.94;99979.88;4910362;28;97834;-94
2021/10/05 05:21:33;;;;;;;52.55;32.85;;;;;;;13.79;76.18;99979.38;4924317;28;97249;-96
2021/10/05 05:23:59;;;;;;;57.15;34.63;;;;;;;13.73;76.57;99969.13;4940145;28;97176;-96
2021/10/05 05:26:25;;;;;;;52.20;33.88;;;;;;;13.76;75.67;99967.19;4927967;28;99632;-94
2021/10/05 05:28:51;;;;;;;51.25;33.58;;;;;;;13.89;75.84;99977.09;4921020;28;99269;-93
2021/10/05 05:31:18;;;;;;;49.13;33.30;;;;;;;13.92;75.11;99988.31;4942034;28;96877;-96
2021/10/05 05:33:44;;;;;;;45.85;32.22;;;;;;;13.95;75.22;99982.88;4934877;28;97998;-93
2021/10/05 05:36:11;;;;;;;44.90;32.65;;;;;;;13.94;74.78;99988.25;4927279;28;99496;-96
2021/10/05 05:38:37;;;;;;;42.05;30.70;;;;;;;13.95;75.00;99977.59;4959251;28;99290;-90
2021/10/05 05:41:03;;;;;;;44.33;31.25;;;;;;;13.86;75.34;99961.41;4931381;28;97129;-86
2021/10/05 05:43:28;;;;;;;40.35;29.77;;;;;;;13.93;74.93;99968.94;4936806;28;96697;-88
2021/10/05 05:45:54;;;;;;;38.35;29.83;;;;;;;13.97;74.99;99967.81;4910260;28;99799;-91
2021/10/05 05:48:19;;;;;;;40.47;31.80;;;;;;;13.98;74.87;99964.25;4907189;28;99185;-90
2021/10/05 05:50:45;;;;;;;38.72;28.52;;;;;;;14.02;74.23;99968.44;4912850;28;96763;-90
2021/10/05 05:53:11;;;;;;;41.30;30.25;;;;;;;14.08;74.26;99966.38;4916273;28;97191;-88
2021/10/05 05:55:37;;;;;;;35.75;29.30;;;;;;;14.17;73.88;99955.34;4921974;28;99316;-90
2021/10/05 05:58:11;;;;;;;43.22;29.73;;;;;;;14.37;73.02;99956.88;4945960;28;97004;-91
2021/10/05 06:00:36;;;;;;;39.63;29.38;;;;;;;14.61;72.29;99963.47;4925048;28;97027;-90
2021/10/05 06:03:02;;;;;;;40.67;29.98;;;;;;;15.48;69.70;99960.19;4916384;28;97328;-91
2021/10/05 06:05:28;;;;;;;36.47;28.25;;;;;;;15.93;68.51;99954.84;4918774;28;101402;-91
2021/10/05 06:07:53;;;;;;;38.22;29.25;;;;;;;16.35;66.77;99948.66;4900980;28;100696;-90
2021/10/05 06:10:19;;;;;;;40.72;28.65;;;;;;;16.35;66.83;99953.09;4898092;28;97526;-88
2021/10/05 06:12:44;;;;;;;37.83;27.17;;;;;;;16.41;66.74;99942.13;4895731;28;96961;-88
2021/10/05 06:15:14;;;;;;;38.50;27.63;;;;;;;16.37;67.03;99933.50;4896672;28;98393;-89
2021/10/05 06:17:41;;;;;;;40.08;27.88;;;;;;;16.26;67.47;99930.69;4928647;28;98372;-90
2021/10/05 06:20:09;;;;;;;35.10;27.08;;;;;;;16.24;67.69;99928.16;4909928;28;96778;-88
2021/10/05 06:22:35;;;;;;;38.65;28.13;;;;;;;16.58;66.88;99930.41;4896940;28;96813;-88
2021/10/05 06:25:02;;;;;;;39.00;28.55;;;;;;;16.93;65.53;99920.19;4892061;28;100410;-93
2021/10/05 06:27:28;;;;;;;37.33;26.48;;;;;;;17.04;65.13;99920.31;4887461;28;101651;-89
2021/10/05 06:29:53;;;;;;;32.22;25.75;;;;;;;17.20;65.30;99918.31;4897437;28;97899;-89
2021/10/05 06:32:19;;;;;;;39.88;26.85;;;;;;;17.28;64.61;99912.50;4909172;28;97618;-86
2021/10/05 06:34:44;;;;;;;36.17;27.33;;;;;;;17.46;64.27;99906.91;4896975;28;100110;-86
2021/10/05 06:37:10;;;;;;;37.92;26.90;;;;;;;17.56;63.98;99908.78;4909694;28;98153;-87
2021/10/05 06:39:35;;;;;;;39.22;27.27;;;;;;;17.59;63.98;99903.25;4898605;28;97774;-91
2021/10/05 06:42:01;;;;;;;34.42;25.90;;;;;;;17.80;63.57;99893.00;4898722;28;96932;-92
2021/10/05 06:44:26;;;;;;;35.95;25.73;;;;;;;18.00;63.15;99896.88;4900814;28;101162;-88
2021/10/05 06:46:52;;;;;;;36.58;27.25;;;;;;;18.21;62.87;99885.66;4930590;28;98031;-90
2021/10/05 06:49:18;;;;;;;39.20;27.67;;;;;;;18.13;63.04;99901.31;4913562;28;97723;-92
2021/10/05 06:51:43;;;;;;;34.97;25.42;;;;;;;18.72;61.93;99888.09;4913465;28;97366;-90
2021/10/05 06:54:09;;;;;;;37.33;25.50;;;;;;;18.94;61.11;99885.56;4890251;28;102958;-90
2021/10/05 06:56:34;;;;;;;35.72;24.60;;;;;;;19.43;59.64;99880.94;4913682;28;101876;-90
2021/10/05 06:59:00;;;;;;;30.02;25.67;;;;;;;19.62;59.10;99877.69;4913361;28;96888;-91
2021/10/05 07:01:25;;;;;;;30.95;25.92;;;;;;;19.92;58.92;99876.25;4899555;28;96928;-90
2021/10/05 07:03:51;;;;;;;34.58;25.30;;;;;;;20.67;57.12;99875.50;4913194;28;99846;-89
2021/10/05 07:06:17;;;;;;;33.30;24.88;;;;;;;21.10;55.87;99871.88;4913776;28;98383;-90
2021/10/05 07:08:42;;;;;;;32.80;23.90;;;;;;;21.57;54.59;99858.97;4901418;28;97313;-90
2021/10/05 07:11:08;;;;;;;30.50;24.27;;;;;;;22.38;52.77;99855.28;4901820;28;96916;-90
2021/10/05 07:13:34;;;;;;;30.58;23.00;;;;;;;22.91;51.50;99853.16;4909200;28;101053;-89
2021/10/05 07:15:59;;;;;;;27.48;21.77;;;;;;;23.69;49.71;99848.47;4921400;28;98362;-89
2021/10/05 07:18:25;;;;;;;33.92;23.63;;;;;;;24.44;47.83;99841.19;4898895;28;96750;-89
2021/10/05 07:20:50;;;;;;;27.23;22.13;;;;;;;25.36;45.94;99836.34;4935739;28;97229;-89
2021/10/05 07:23:16;;;;;;;29.17;21.48;;;;;;;26.23;44.59;99816.38;4924437;28;101634;-90
2021/10/05 07:25:41;;;;;;;23.70;20.50;;;;;;;27.16;42.14;99817.97;4923750;28;98385;-89
2021/10/05 07:28:10;;;;;;;25.63;20.77;;;;;;;27.76;40.97;99817.44;4924563;28;96795;-89
2021/10/05 07:30:36;;;;;;;29.10;20.27;;;;;;;27.92;40.47;99822.75;4920139;28;97722;-89
2021/10/05 07:33:02;;;;;;;27.60;19.98;;;;;;;28.88;38.99;99829.53;4917953;28;100307;-88
2021/10/05 07:35:29;;;;;;;25.90;19.75;;;;;;;29.70;37.98;99808.94;4921920;28;98149;-90
2021/10/05 07:37:55;;;;;;;29.15;20.50;;;;;;;30.04;37.17;99807.50;4909290;28;97006;-90
2021/10/05 07:40:21;;;;;;;24.13;17.65;;;;;;;30.69;35.20;99803.81;4923227;28;97694;-90
2021/10/05 07:42:51;;;;;;;25.08;17.30;;;;;;;31.05;35.31;99792.84;4905682;28;100512;-91
2021/10/05 07:45:17;;;;;;;21.02;16.83;;;;;;;31.39;34.99;99776.81;4939005;28;98549;-89
2021/10/05 07:47:42;;;;;;;22.17;17.95;;;;;;;31.79;33.67;99780.53;4933718;28;96939;-89
2021/10/05 07:50:09;;;;;;;24.02;17.40;;;;;;;32.16;33.15;99779.22;4923311;28;96859;-90
2021/10/05 07:52:34;;;;;;;21.13;16.40;;;;;;;32.80;32.49;99772.38;4922141;28;100359;-88
2021/10/05 07:55:00;;;;;;;18.95;16.40;;;;;;;32.88;32.15;99763.19;4923437;28;98137;-90
2021/10/05 07:57:25;;;;;;;19.10;16.40;;;;;;;32.96;31.73;99759.41;4887478;28;96946;-89
2021/10/05 07:59:52;;;;;;;28.63;16.30;;;;;;;33.05;31.40;99745.44;4944061;28;96759;-88
2021/10/05 08:02:18;;;;;;;26.92;16.05;;;;;;;32.66;32.03;99747.09;4917504;28;101616;-91
2021/10/05 08:04:44;;;;;;;17.08;15.38;;;;;;;32.93;31.49;99736.22;4918786;28;100130;-89
2021/10/05 08:07:09;;;;;;;16.48;14.65;;;;;;;33.43;31.07;99727.53;4936628;28;97423;-91
2021/10/05 08:09:35;;;;;;;19.42;15.70;;;;;;;33.49;30.94;99727.50;4915629;28;97120;-89
2021/10/05 08:12:00;;;;;;;18.65;15.15;;;;;;;33.43;30.78;99722.94;4931284;28;100369;-90
2021/10/05 08:14:26;;;;;;;18.25;15.90;;;;;;;33.57;30.49;99721.84;4952968;28;98201;-89
2021/10/05 08:16:51;;;;;;;22.77;16.00;;;;;;;33.80;30.08;99715.00;4933678;28;96841;-90
2021/10/05 08:19:18;;;;;;;21.45;14.80;;;;;;;33.89;30.17;99713.72;4923175;28;96818;-87
2021/10/05 08:21:44;;;;;;;16.63;14.98;;;;;;;34.41;29.98;99700.81;4936516;28;98595;-87
2021/10/05 08:24:09;;;;;;;18.73;15.40;;;;;;;33.64;30.74;99707.38;4937080;28;97842;-90
2021/10/05 08:26:35;;;;;;;16.52;14.05;;;;;;;33.97;30.44;99696.28;4929334;28;96832;-89
2021/10/05 08:29:02;;;;;;;17.30;13.85;;;;;;;34.39;30.48;99697.47;4931044;28;97514;-89
2021/10/05 08:31:27;;;;;;;16.25;13.85;;;;;;;34.83;29.33;99698.31;4943166;28;98257;-88
2021/10/05 08:33:53;;;;;;;28.85;13.88;;;;;;;35.14;28.89;99686.47;4931459;28;100819;-87
2021/10/05 08:36:19;;;;;;;18.13;13.55;;;;;;;34.79;29.40;99693.53;4916931;28;97612;-89
2021/10/05 08:38:45;;;;;;;19.92;15.10;;;;;;;35.36;28.87;99683.25;4909882;28;97003;-89
2021/10/05 08:41:12;;;;;;;15.68;12.50;;;;;;;34.13;29.73;99684.88;4950877;28;98367;-89
2021/10/05 08:43:37;;;;;;;14.23;12.73;;;;;;;35.15;28.65;99669.03;4932250;28;100360;-89
2021/10/05 08:46:03;;;;;;;14.48;12.38;;;;;;;35.38;28.65;99664.78;4934383;28;96792;-88
2021/10/05 08:48:36;;;;;;;15.48;12.55;;;;;;;35.53;28.15;99658.91;4935424;28;97283;-88
2021/10/05 08:51:03;;;;;;;13.85;12.25;;;;;;;35.51;28.26;99656.41;4918615;28;101812;-89
2021/10/05 08:53:30;;;;;;;19.45;12.32;;;;;;;34.97;28.43;99652.66;4918665;28;101000;-90
2021/10/05 08:55:59;;;;;;;13.05;11.75;;;;;;;34.28;29.32;99651.88;4930162;28;97032;-89
2021/10/05 08:58:24;;;;;;;16.13;11.30;;;;;;;34.33;29.36;99652.03;4933564;28;98729;-87
2021/10/05 09:00:53;;;;;;;15.57;11.32;;;;;;;34.15;29.32;99655.56;4936601;28;100927;-88
2021/10/05 09:03:23;;;;;;;18.17;11.27;;;;;;;33.22;30.71;99660.66;4917567;28;101629;-88
2021/10/05 09:05:49;;;;;;;15.93;12.55;;;;;;;33.03;30.71;99663.25;4914995;28;97226;-87
2021/10/05 09:08:27;;;;;;;11.95;10.85;;;;;;;33.43;30.79;99654.09;4933135;28;96805;-87
2021/10/05 09:11:00;;;;;;;14.88;11.30;;;;;;;33.29;30.83;99651.44;4956397;28;98246;-88
2021/10/05 09:13:33;;;;;;;13.02;11.68;;;;;;;32.99;31.34;99650.28;4938015;28;100214;-87
2021/10/05 09:15:59;;;;;;;14.18;10.98;;;;;;;32.78;31.03;99654.09;4933739;28;97424;-87
2021/10/05 09:18:25;;;;;;;14.43;11.45;;;;;;;32.85;30.95;99658.47;4939413;28;97887;-88
2021/10/05 09:20:51;;;;;;;12.18;10.80;;;;;;;33.44;30.75;99650.31;4949365;28;98086;-88
2021/10/05 09:23:17;;;;;;;11.77;10.68;;;;;;;33.38;30.81;99660.19;4925007;28;101502;-89
2021/10/05 09:25:47;;;;;;;15.77;11.05;;;;;;;32.59;31.71;99634.91;4936605;28;99355;-87
2021/10/05 09:28:29;;;;;;;16.58;10.63;;;;;;;31.99;32.28;99631.38;4908954;28;97044;-88
2021/10/05 09:30:56;;;;;;;14.00;11.65;;;;;;;31.97;32.65;99638.88;4938171;28;101361;-91
2021/10/05 09:33:23;;;;;;;12.90;10.77;;;;;;;32.45;31.91;99634.09;4939920;28;101057;-89
2021/10/05 09:35:49;;;;;;;13.23;10.52;;;;;;;32.31;32.12;99629.69;4914587;28;97101;-88
2021/10/05 09:38:17;;;;;;;12.48;10.00;;;;;;;31.87;32.19;99643.88;4923526;28;98073;-88
2021/10/05 09:40:43;;;;;;;18.15;10.35;;;;;;;32.12;31.97;99628.69;4924649;28;99616;-90
2021/10/05 09:43:21;;;;;;;13.40;9.95;;;;;;;31.89;32.30;99625.50;4920065;28;100636;-89
2021/10/05 09:45:47;;;;;;;11.25;10.32;;;;;;;31.18;33.24;99620.50;4917589;28;97076;-88
2021/10/05 09:48:13;;;;;;;11.93;10.18;;;;;;;31.72;33.02;99625.06;4920604;28;97323;-89
2021/10/05 09:50:39;;;;;;;11.27;10.13;;;;;;;31.78;32.99;99624.25;4923243;28;101355;-87
2021/10/05 09:53:10;;;;;;;11.20;9.43;;;;;;;31.41;32.99;99610.19;4934798;28;100843;-88
2021/10/05 09:55:43;;;;;;;14.07;10.23;;;;;;;30.05;35.46;99612.50;4916239;28;97300;-89
2021/10/05 09:58:09;;;;;;;13.43;10.10;;;;;;;30.55;34.75;99609.78;4936214;28;96765;-89
2021/10/05 10:00:41;;;;;;;12.80;9.60;;;;;;;30.33;34.83;99607.09;4923379;28;100944;-90
2021/10/05 10:03:07;;;;;;;12.65;9.70;;;;;;;29.88;35.55;99603.00;4916776;28;101327;-89
2021/10/05 10:05:37;;;;;;;13.18;9.57;;;;;;;29.10;36.51;99594.66;4918311;28;96764;-89
2021/10/05 10:08:04;;;;;;;15.73;10.52;;;;;;;28.95;37.38;99599.25;4945612;28;96757;-89
2021/10/05 10:10:34;;;;;;;11.13;9.65;;;;;;;29.01;37.03;99588.50;4925195;28;101624;-91
2021/10/05 10:13:02;;;;;;;12.52;10.35;;;;;;;28.16;38.67;99608.69;4928508;28;100824;-90
2021/10/05 10:15:30;;;;;;;13.23;9.55;;;;;;;28.07;38.71;99588.19;4941686;28;96971;-86
2021/10/05 10:18:14;;;;;;;12.50;9.30;;;;;;;28.38;38.07;99593.44;4936861;28;98101;-84
2021/10/05 10:20:42;;;;;;;14.23;10.48;;;;;;;28.62;38.14;99588.81;4934666;28;101327;-90
2021/10/05 10:23:24;;;;;;;11.80;10.27;;;;;;;28.31;38.08;99581.72;4939361;28;98506;-90
2021/10/05 10:25:54;;;;;;;14.20;9.93;;;;;;;28.54;38.61;99591.63;4926583;28;97255;-88
2021/10/05 10:28:23;;;;;;;;;;;;;;;28.62;38.16;99584.28;4923211;28;96879;-88
2021/10/05 10:30:55;;;;;;;14.30;11.05;;;;;;;28.33;38.52;99576.97;4931869;28;100423;-87
2021/10/05 10:33:21;;;;;;;11.85;9.93;;;;;;;27.51;39.66;99585.75;4930655;28;98323;-89
2021/10/05 10:35:56;;;;;;;12.20;10.38;;;;;;;27.75;39.89;99598.22;4922752;28;96865;-88
2021/10/05 10:38:30;;;;;;;11.95;9.82;;;;;;;27.40;40.63;99583.47;4936084;28;96858;-89
2021/10/05 10:40:57;;;;;;;14.73;10.23;;;;;;;27.28;40.52;99574.94;4922053;28;100403;-89
2021/10/05 10:43:26;;;;;;;16.27;10.70;;;;;;;27.00;40.65;99574.59;4938595;28;101227;-89
2021/10/05 10:45:55;;;;;;;13.98;10.45;;;;;;;26.46;41.23;99565.53;4933327;28;96797;-90
2021/10/05 10:48:32;;;;;;;13.35;10.57;;;;;;;26.23;41.74;99573.47;4941362;28;97357;-88
2021/10/05 10:51:03;;;;;;;14.77;9.77;;;;;;;26.14;42.34;99578.03;4939865;28;98518;-87
2021/10/05 10:53:36;;;;;;;16.70;10.70;;;;;;;26.13;42.26;99563.75;4934284;28;97912;-88
2021/10/05 10:56:01;;;;;;;12.40;9.73;;;;;;;26.14;42.13;99565.41;4954784;28;96969;-89
2021/10/05 10:58:40;;;;;;;14.40;9.82;;;;;;;26.17;42.43;99565.06;4921332;28;97510;-90
2021/10/05 11:01:09;;;;;;;14.70;10.02;;;;;;;26.16;42.42;99558.03;4945733;28;98674;-85
2021/10/05 11:03:35;;;;;;;13.45;9.65;;;;;;;26.12;42.27;99566.59;4952673;28;101598;-84
2021/10/05 11:06:01;;;;;;;16.10;8.95;;;;;;;26.12;42.31;99562.09;4929067;28;96685;-85
2021/10/05 11:08:27;;;;;;;13.80;9.45;;;;;;;25.94;42.06;99553.34;4918295;28;97271;-85
2021/10/05 11:11:01;;;;;;;12.15;8.68;;;;;;;25.86;42.89;99554.22;4933926;28;101448;-85
2021/10/05 11:13:28;;;;;;;15.38;9.00;;;;;;;25.82;42.91;99550.16;4929408;28;100250;-85